createdAt,value
2022-12-28T00:02:14.195Z,10.59
2022-12-28T00:04:43.099Z,10.22
2022-12-28T00:07:10.701Z,10.00
2022-12-28T00:09:38.350Z,10.28
2022-12-28T00:12:06.389Z,10.68
2022-12-28T00:14:33.996Z,10.95
2022-12-28T00:17:01.528Z,10.80
2022-12-28T00:19:29.212Z,10.50
2022-12-28T00:21:56.787Z,10.64
2022-12-28T00:24:26.285Z,10.38
2022-12-28T00:26:56.823Z,10.37
2022-12-28T00:29:24.685Z,10.32
2022-12-28T00:31:52.228Z,10.16
2022-12-28T00:34:24.239Z,10.10
2022-12-28T00:37:12.297Z,10.04
2022-12-28T00:39:42.236Z,10.11
2022-12-28T00:42:10.577Z,10.18
2022-12-28T00:44:38.262Z,9.95
2022-12-28T00:47:05.830Z,10.18
2022-12-28T00:49:33.365Z,10.27
2022-12-28T00:52:00.938Z,10.13
2022-12-28T00:54:29.316Z,9.90
2022-12-28T00:56:56.848Z,10.00
2022-12-28T00:59:24.400Z,10.26
2022-12-28T01:01:52.049Z,10.19
2022-12-28T01:04:19.861Z,9.93
2022-12-28T01:06:48.334Z,9.94
2022-12-28T01:09:15.869Z,9.99
2022-12-28T01:11:43.457Z,9.91
2022-12-28T01:14:11.119Z,9.86
2022-12-28T01:16:38.770Z,10.00
2022-12-28T01:19:08.834Z,10.12
2022-12-28T01:21:37.292Z,10.05
2022-12-28T01:24:10.119Z,9.99
2022-12-28T01:26:37.743Z,10.61
2022-12-28T01:29:05.286Z,10.28
2022-12-28T01:31:33.736Z,10.09
2022-12-28T01:34:02.478Z,10.16
2022-12-28T01:36:32.673Z,10.33
2022-12-28T01:39:04.468Z,10.13
2022-12-28T01:41:36.114Z,9.93
2022-12-28T01:44:04.264Z,9.68
2022-12-28T01:46:51.486Z,9.96
2022-12-28T01:49:34.904Z,9.94
2022-12-28T01:52:15.897Z,10.04
2022-12-28T01:55:08.553Z,9.90
2022-12-28T01:57:51.719Z,9.65
2022-12-28T02:00:20.055Z,9.56
2022-12-28T02:03:01.792Z,9.48
2022-12-28T02:05:34.767Z,9.65
2022-12-28T02:08:27.129Z,9.68
2022-12-28T02:10:55.543Z,9.55
2022-12-28T02:13:24.822Z,9.53
2022-12-28T02:15:52.891Z,9.47
2022-12-28T02:18:22.874Z,9.35
2022-12-28T02:21:08.408Z,9.44
2022-12-28T02:23:53.982Z,9.36
2022-12-28T02:26:55.296Z,9.25
2022-12-28T02:29:54.886Z,9.19
2022-12-28T02:32:57.001Z,9.11
2022-12-28T02:35:54.911Z,9.25
2022-12-28T02:38:47.467Z,9.18
2022-12-28T02:41:23.138Z,9.15
2022-12-28T02:43:51.915Z,9.15
2022-12-28T02:46:40.220Z,9.14
2022-12-28T02:49:46.178Z,9.08
2022-12-28T02:52:41.865Z,9.15
2022-12-28T02:56:02.106Z,9.12
2022-12-28T02:59:27.852Z,9.12
2022-12-28T03:02:24.077Z,9.19
2022-12-28T03:05:00.322Z,9.33
2022-12-28T03:08:17.675Z,9.24
2022-12-28T03:11:05.509Z,9.23
2022-12-28T03:13:45.016Z,9.15
2022-12-28T03:16:29.238Z,9.18
2022-12-28T03:19:23.622Z,9.11
2022-12-28T03:22:13.966Z,9.12
2022-12-28T03:25:04.971Z,9.25
2022-12-28T03:27:53.185Z,9.29
2022-12-28T03:30:44.503Z,9.54
2022-12-28T03:33:14.366Z,9.49
2022-12-28T03:35:53.841Z,9.20
2022-12-28T03:39:00.152Z,9.20
2022-12-28T03:42:13.412Z,9.03
2022-12-28T03:44:50.080Z,8.96
2022-12-28T03:47:19.869Z,9.01
2022-12-28T03:49:47.851Z,9.06
2022-12-28T03:52:15.692Z,9.10
2022-12-28T03:54:44.722Z,8.99
2022-12-28T03:57:17.067Z,9.06
2022-12-28T03:59:46.527Z,9.03
2022-12-28T04:02:14.265Z,8.95
2022-12-28T04:04:42.276Z,9.09
2022-12-28T04:07:10.768Z,9.28
2022-12-28T04:09:38.359Z,9.47
2022-12-28T04:12:07.672Z,9.23
2022-12-28T04:14:55.190Z,9.30
2022-12-28T04:17:22.700Z,9.22
2022-12-28T04:19:50.313Z,9.19
2022-12-28T04:22:18.328Z,9.19
2022-12-28T04:24:46.516Z,9.19
2022-12-28T04:27:14.130Z,9.22
2022-12-28T04:29:41.725Z,9.25
2022-12-28T04:32:13.727Z,9.25
2022-12-28T04:34:48.037Z,9.31
2022-12-28T04:37:17.523Z,9.34
2022-12-28T04:39:55.272Z,9.43
2022-12-28T04:42:25.182Z,9.47
2022-12-28T04:44:52.728Z,9.56
2022-12-28T04:47:20.277Z,9.45
2022-12-28T04:49:47.940Z,9.35
2022-12-28T04:52:15.489Z,9.21
2022-12-28T04:54:43.038Z,9.26
2022-12-28T04:57:13.210Z,9.25
2022-12-28T04:59:40.808Z,9.32
2022-12-28T05:02:08.697Z,9.33
2022-12-28T05:04:36.285Z,9.31
2022-12-28T05:07:03.778Z,9.41
2022-12-28T05:09:31.385Z,9.48
2022-12-28T05:11:58.859Z,9.54
2022-12-28T05:14:26.429Z,9.54
2022-12-28T05:16:53.938Z,9.56
2022-12-28T05:19:21.495Z,9.58
2022-12-28T05:21:48.970Z,9.51
2022-12-28T05:24:16.530Z,9.41
2022-12-28T05:26:44.081Z,9.41
2022-12-28T05:29:11.711Z,9.47
2022-12-28T05:31:39.335Z,9.37
2022-12-28T05:34:07.003Z,9.41
2022-12-28T05:36:37.919Z,9.64
2022-12-28T05:39:05.725Z,9.83
2022-12-28T05:41:33.368Z,9.79
2022-12-28T05:44:01.319Z,9.67
2022-12-28T05:46:32.619Z,9.64
2022-12-28T05:49:01.751Z,9.55
2022-12-28T05:51:32.553Z,9.55
2022-12-28T05:54:04.443Z,9.51
2022-12-28T05:56:33.450Z,9.29
2022-12-28T05:59:04.491Z,9.29
2022-12-28T06:01:35.956Z,9.24
2022-12-28T06:04:08.932Z,9.27
2022-12-28T06:06:36.938Z,9.46
2022-12-28T06:09:05.209Z,9.70
2022-12-28T06:11:33.277Z,9.63
2022-12-28T06:14:03.720Z,9.63
2022-12-28T06:16:35.579Z,9.43
2022-12-28T06:19:11.791Z,9.35
2022-12-28T06:21:41.822Z,9.38
2022-12-28T06:24:10.915Z,9.60
2022-12-28T06:26:41.354Z,9.48
2022-12-28T06:29:09.224Z,9.37
2022-12-28T06:31:41.126Z,9.40
2022-12-28T06:34:10.293Z,9.56
2022-12-28T06:36:41.514Z,9.69
2022-12-28T06:39:12.615Z,9.50
2022-12-28T06:41:41.524Z,9.36
2022-12-28T06:44:15.667Z,9.41
2022-12-28T06:46:44.312Z,9.34
2022-12-28T06:49:11.818Z,9.30
2022-12-28T06:51:42.177Z,9.20
2022-12-28T06:54:11.288Z,9.18
2022-12-28T06:56:39.550Z,9.26
2022-12-28T06:59:07.704Z,9.30
2022-12-28T07:01:41.681Z,9.35
2022-12-28T07:04:10.703Z,9.42
2022-12-28T07:06:42.564Z,9.32
2022-12-28T07:09:16.648Z,9.26
2022-12-28T07:11:45.363Z,9.18
2022-12-28T07:14:13.154Z,9.22
2022-12-28T07:19:07.402Z,9.23
2022-12-28T07:21:38.335Z,9.32
2022-12-28T07:24:07.170Z,9.28
2022-12-28T07:26:37.359Z,9.36
2022-12-28T07:29:07.420Z,9.32
2022-12-28T07:31:44.892Z,9.33
2022-12-28T07:34:15.118Z,9.42
2022-12-28T07:36:43.862Z,9.38
2022-12-28T07:39:11.990Z,9.50
2022-12-28T07:41:40.176Z,9.44
2022-12-28T07:44:07.894Z,9.58
2022-12-28T07:46:37.895Z,9.57
2022-12-28T07:49:05.824Z,9.57
2022-12-28T07:51:37.444Z,9.43
2022-12-28T07:54:07.932Z,9.39
2022-12-28T07:59:05.033Z,9.56
2022-12-28T08:01:35.858Z,9.64
2022-12-28T08:04:07.885Z,9.95
2022-12-28T08:06:42.257Z,10.14
2022-12-28T08:09:12.712Z,9.80
2022-12-28T08:11:44.845Z,9.62
2022-12-28T08:14:13.102Z,9.67
2022-12-28T08:16:44.122Z,9.70
2022-12-28T08:19:12.123Z,9.72
2022-12-28T08:21:44.860Z,9.85
2022-12-28T08:24:19.737Z,9.91
2022-12-28T08:26:48.834Z,9.83
2022-12-28T08:29:20.397Z,9.82
2022-12-28T08:31:49.978Z,9.99
2022-12-28T08:34:23.139Z,9.88
2022-12-28T08:36:50.645Z,9.84
2022-12-28T08:39:18.224Z,9.80
2022-12-28T08:41:45.853Z,10.05
2022-12-28T08:44:13.346Z,10.09
2022-12-28T08:46:41.426Z,10.52
2022-12-28T08:49:09.344Z,10.39
2022-12-28T08:51:41.556Z,10.31
2022-12-28T08:54:11.896Z,10.29
2022-12-28T08:56:42.745Z,10.41
2022-12-28T08:59:15.762Z,10.57
2022-12-28T09:01:44.777Z,10.79
2022-12-28T09:04:19.455Z,10.74
2022-12-28T09:06:48.027Z,10.75
2022-12-28T09:09:18.055Z,10.94
2022-12-28T09:11:49.043Z,11.04
2022-12-28T09:14:24.847Z,10.85
2022-12-28T09:16:54.457Z,10.72
2022-12-28T09:19:24.357Z,10.80
2022-12-28T09:21:53.475Z,10.90
2022-12-28T09:24:22.231Z,10.77
2022-12-28T09:26:52.846Z,10.81
2022-12-28T09:29:20.895Z,10.83
2022-12-28T09:31:48.514Z,10.65
2022-12-28T09:37:07.854Z,10.71
2022-12-28T09:39:35.474Z,10.72
2022-12-28T09:42:24.385Z,10.87
2022-12-28T09:45:03.282Z,11.02
2022-12-28T09:47:52.023Z,11.41
2022-12-28T09:50:25.812Z,11.53
2022-12-28T09:53:25.173Z,11.94
2022-12-28T09:56:05.415Z,11.59
2022-12-28T09:58:37.928Z,11.68
2022-12-28T10:01:13.231Z,11.61
2022-12-28T10:03:43.285Z,11.67
2022-12-28T10:06:18.332Z,11.59
2022-12-28T10:09:02.158Z,11.58
2022-12-28T10:11:49.980Z,11.74
2022-12-28T10:14:21.803Z,11.78
2022-12-28T10:16:49.719Z,11.83
2022-12-28T10:19:24.602Z,11.83
2022-12-28T10:22:02.871Z,11.70
2022-12-28T10:24:32.500Z,11.94
2022-12-28T10:27:04.408Z,11.64
2022-12-28T10:29:34.105Z,11.92
2022-12-28T10:32:30.166Z,12.07
2022-12-28T10:35:01.199Z,11.94
2022-12-28T10:37:34.895Z,11.92
2022-12-28T10:40:21.356Z,12.08
2022-12-28T10:42:54.784Z,12.00
2022-12-28T10:45:51.104Z,11.82
2022-12-28T10:48:41.206Z,11.64
2022-12-28T10:51:16.033Z,11.88
2022-12-28T10:53:51.394Z,11.51
2022-12-28T10:56:23.894Z,11.41
2022-12-28T10:59:12.519Z,11.30
2022-12-28T11:01:42.773Z,11.41
2022-12-28T11:04:23.562Z,11.59
2022-12-28T11:07:05.684Z,11.59
2022-12-28T11:09:35.956Z,11.66
2022-12-28T11:12:26.636Z,11.90
2022-12-28T11:14:56.689Z,11.75
2022-12-28T11:17:28.062Z,11.64
2022-12-28T11:20:09.447Z,11.58
2022-12-28T11:22:39.255Z,11.45
2022-12-28T11:25:08.363Z,11.54
2022-12-28T11:27:37.087Z,11.58
2022-12-28T11:30:11.104Z,11.61
2022-12-28T11:32:52.470Z,11.54
2022-12-28T11:36:00.564Z,11.64
2022-12-28T11:38:47.771Z,11.49
2022-12-28T11:41:30.323Z,11.38
2022-12-28T11:44:07.351Z,11.39
2022-12-28T11:46:44.438Z,11.47
2022-12-28T11:49:32.021Z,11.47
2022-12-28T11:52:17.631Z,11.66
2022-12-28T11:55:24.983Z,11.63
2022-12-28T11:57:53.927Z,11.68
2022-12-28T12:00:24.175Z,11.60
2022-12-28T12:03:01.368Z,11.74
2022-12-28T12:05:39.634Z,11.74
2022-12-28T12:08:18.041Z,11.69
2022-12-28T12:10:47.816Z,11.63
2022-12-28T12:13:30.542Z,11.65
2022-12-28T12:16:16.361Z,11.40
2022-12-28T12:18:54.687Z,11.28
2022-12-28T12:21:32.299Z,11.48
2022-12-28T12:24:31.865Z,11.50
2022-12-28T12:27:27.555Z,11.39
2022-12-28T12:30:05.218Z,11.41
2022-12-28T12:32:42.460Z,11.48
2022-12-28T12:35:38.702Z,11.25
2022-12-28T12:38:46.326Z,11.39
2022-12-28T12:41:27.295Z,11.50
2022-12-28T12:44:22.900Z,11.39
2022-12-28T12:47:32.648Z,11.61
2022-12-28T12:50:26.925Z,11.50
2022-12-28T12:53:34.638Z,11.53
2022-12-28T12:56:26.255Z,11.56
2022-12-28T12:59:30.923Z,11.77
2022-12-28T13:02:25.828Z,11.82
2022-12-28T13:05:14.634Z,11.69
2022-12-28T13:07:43.596Z,11.73
2022-12-28T13:10:20.165Z,11.63
2022-12-28T13:13:09.693Z,11.37
2022-12-28T13:15:40.389Z,11.59
2022-12-28T13:18:44.416Z,11.64
2022-12-28T13:21:18.246Z,11.64
2022-12-28T13:23:55.189Z,11.58
2022-12-28T13:26:33.367Z,11.49
2022-12-28T13:29:08.237Z,11.36
2022-12-28T13:31:49.630Z,11.29
2022-12-28T13:34:26.598Z,11.17
2022-12-28T13:37:16.564Z,11.21
2022-12-28T13:39:44.676Z,11.17
2022-12-28T13:42:24.812Z,11.16
2022-12-28T13:45:05.664Z,11.16
2022-12-28T13:47:47.361Z,11.22
2022-12-28T13:50:38.038Z,11.24
2022-12-28T13:53:21.008Z,11.30
2022-12-28T13:55:53.680Z,11.37
2022-12-28T13:58:51.235Z,11.28
2022-12-28T14:01:25.295Z,11.34
2022-12-28T14:04:33.647Z,11.29
2022-12-28T14:06:50.450Z,11.20
2022-12-28T14:09:21.393Z,11.19
2022-12-28T14:11:50.281Z,11.19
2022-12-28T14:14:21.029Z,11.27
2022-12-28T14:16:48.914Z,11.29
2022-12-28T14:19:17.148Z,11.36
2022-12-28T14:21:46.151Z,11.33
2022-12-28T14:24:17.284Z,11.27
2022-12-28T14:26:54.314Z,11.29
2022-12-28T14:29:35.527Z,11.32
2022-12-28T14:32:16.221Z,11.39
2022-12-28T14:34:44.841Z,11.47
2022-12-28T14:37:27.306Z,11.48
2022-12-28T14:40:02.515Z,11.41
2022-12-28T14:42:31.427Z,11.29
2022-12-28T14:44:59.306Z,11.29
2022-12-28T14:47:44.641Z,11.29
2022-12-28T14:50:29.271Z,11.25
2022-12-28T14:53:16.318Z,11.12
2022-12-28T14:55:53.647Z,10.96
2022-12-28T15:01:50.917Z,10.76
2022-12-28T15:04:43.965Z,10.75
2022-12-28T15:07:12.515Z,10.68
2022-12-28T15:09:41.083Z,10.56
2022-12-28T15:12:20.758Z,10.51
2022-12-28T15:14:52.997Z,10.45
2022-12-28T15:17:40.536Z,10.37
2022-12-28T15:20:09.363Z,10.23
2022-12-28T15:22:36.995Z,10.15
2022-12-28T15:25:05.275Z,10.05
2022-12-28T15:27:32.874Z,10.05
2022-12-28T15:30:09.810Z,9.91
2022-12-28T15:32:39.677Z,9.95
2022-12-28T15:35:08.037Z,9.76
2022-12-28T15:37:35.654Z,9.80
2022-12-28T15:40:05.051Z,9.82
2022-12-28T15:42:39.898Z,9.78
2022-12-28T15:45:09.183Z,9.70
2022-12-28T15:47:37.003Z,9.72
2022-12-28T15:50:06.390Z,9.66
2022-12-28T15:52:35.677Z,9.63
2022-12-28T15:55:04.440Z,9.64
2022-12-28T15:57:32.105Z,9.64
2022-12-28T16:00:01.063Z,9.58
2022-12-28T16:02:29.001Z,9.52
2022-12-28T16:04:56.811Z,9.51
2022-12-28T16:07:25.148Z,9.49
2022-12-28T16:09:53.014Z,9.51
2022-12-28T16:12:20.596Z,9.45
2022-12-28T16:14:48.387Z,9.49
2022-12-28T16:17:16.198Z,9.55
2022-12-28T16:19:43.775Z,9.48
2022-12-28T16:22:11.998Z,9.46
2022-12-28T16:24:41.507Z,9.53
2022-12-28T16:27:13.544Z,9.52
2022-12-28T16:29:45.276Z,9.49
2022-12-28T16:32:13.731Z,9.48
2022-12-28T16:35:02.717Z,9.51
2022-12-28T16:37:31.448Z,9.55
2022-12-28T16:40:08.674Z,9.51
2022-12-28T16:42:37.339Z,9.39
2022-12-28T16:45:07.312Z,9.46
2022-12-28T16:47:38.226Z,9.39
2022-12-28T16:50:13.455Z,9.31
2022-12-28T16:52:46.672Z,9.32
2022-12-28T16:55:14.288Z,9.28
2022-12-28T16:57:41.827Z,9.34
2022-12-28T17:00:12.241Z,9.35
2022-12-28T17:02:43.722Z,9.31
2022-12-28T17:05:11.504Z,9.22
2022-12-28T17:07:41.769Z,9.28
2022-12-28T17:10:10.515Z,9.25
2022-12-28T17:12:42.028Z,9.04
2022-12-28T17:15:11.422Z,8.92
2022-12-28T17:17:38.976Z,8.92
2022-12-28T17:20:07.661Z,8.95
2022-12-28T17:22:35.628Z,8.92
2022-12-28T17:25:03.360Z,8.93
2022-12-28T17:27:34.151Z,8.87
2022-12-28T17:30:02.291Z,8.78
2022-12-28T17:32:30.105Z,8.78
2022-12-28T17:34:57.636Z,8.65
2022-12-28T17:37:25.723Z,8.66
2022-12-28T17:39:56.248Z,8.54
2022-12-28T17:42:24.306Z,8.50
2022-12-28T17:44:51.861Z,8.39
2022-12-28T17:47:20.339Z,8.42
2022-12-28T17:49:48.330Z,8.36
2022-12-28T17:52:21.013Z,8.35
2022-12-28T17:54:52.949Z,8.33
2022-12-28T17:57:21.660Z,8.23
2022-12-28T17:59:51.027Z,8.25
2022-12-28T18:02:19.046Z,8.22
2022-12-28T18:04:59.833Z,8.12
2022-12-28T18:07:28.976Z,8.18
2022-12-28T18:10:44.622Z,8.16
2022-12-28T18:13:14.910Z,7.86
2022-12-28T18:15:46.052Z,7.75
2022-12-28T18:18:19.501Z,7.76
2022-12-28T18:21:00.646Z,7.66
2022-12-28T18:23:33.271Z,7.53
2022-12-28T18:26:10.148Z,7.82
2022-12-28T18:28:39.747Z,7.65
2022-12-28T18:31:09.613Z,7.28
2022-12-28T18:33:38.717Z,7.00
2022-12-28T18:36:16.860Z,7.25
2022-12-28T18:38:46.104Z,7.06
2022-12-28T18:41:17.045Z,7.28
2022-12-28T18:43:45.277Z,7.23
2022-12-28T18:46:16.056Z,7.12
2022-12-28T18:48:46.960Z,7.10
2022-12-28T18:51:17.809Z,7.10
2022-12-28T18:53:46.808Z,7.08
2022-12-28T18:56:19.028Z,6.99
2022-12-28T18:58:55.015Z,7.06
2022-12-28T19:04:19.238Z,7.12
2022-12-28T19:06:47.959Z,7.08
2022-12-28T19:09:16.003Z,7.12
2022-12-28T19:11:45.002Z,7.07
2022-12-28T19:14:14.888Z,7.16
2022-12-28T19:16:45.142Z,7.19
2022-12-28T19:19:17.630Z,7.28
2022-12-28T19:21:45.765Z,7.24
2022-12-28T19:24:20.005Z,7.36
2022-12-28T19:26:51.041Z,7.20
2022-12-28T19:29:19.609Z,7.16
2022-12-28T19:31:47.092Z,7.24
2022-12-28T19:34:15.932Z,7.30
2022-12-28T19:36:43.482Z,7.33
2022-12-28T19:39:12.092Z,7.45
2022-12-28T19:41:42.100Z,7.44
2022-12-28T19:44:09.763Z,7.42
2022-12-28T19:46:37.374Z,7.49
2022-12-28T19:49:05.664Z,7.47
2022-12-28T19:51:34.086Z,7.59
2022-12-28T19:54:03.160Z,7.68
2022-12-28T19:56:32.442Z,7.56
2022-12-28T19:59:06.031Z,7.55
2022-12-28T20:01:36.992Z,7.53
2022-12-28T20:04:12.772Z,7.45
2022-12-28T20:06:46.736Z,7.31
2022-12-28T20:09:15.187Z,7.36
2022-12-28T20:11:45.148Z,7.46
2022-12-28T20:14:23.327Z,7.45
2022-12-28T20:16:54.831Z,7.20
2022-12-28T20:19:22.421Z,7.10
2022-12-28T20:21:52.106Z,7.16
2022-12-28T20:24:22.893Z,7.30
2022-12-28T20:26:51.483Z,7.10
2022-12-28T20:29:20.913Z,7.07
2022-12-28T20:31:51.807Z,7.04
2022-12-28T20:34:19.645Z,6.93
2022-12-28T20:36:48.164Z,6.88
2022-12-28T20:39:20.466Z,6.88
2022-12-28T20:42:06.429Z,6.97
2022-12-28T20:44:34.616Z,7.01
2022-12-28T20:47:03.516Z,6.93
2022-12-28T20:49:32.256Z,6.96
2022-12-28T20:52:02.571Z,7.01
2022-12-28T20:54:30.252Z,6.83
2022-12-28T20:56:58.154Z,6.93
2022-12-28T20:59:26.315Z,7.03
2022-12-28T21:01:54.833Z,7.07
2022-12-28T21:04:24.837Z,7.10
2022-12-28T21:06:54.210Z,7.06
2022-12-28T21:09:23.071Z,7.24
2022-12-28T21:11:51.183Z,7.42
2022-12-28T21:14:20.519Z,7.48
2022-12-28T21:16:49.320Z,7.37
2022-12-28T21:19:17.789Z,7.05
2022-12-28T21:21:47.521Z,6.71
2022-12-28T21:24:18.085Z,6.56
2022-12-28T21:26:47.958Z,6.80
2022-12-28T21:29:22.118Z,6.86
2022-12-28T21:31:55.684Z,6.56
2022-12-28T21:34:23.924Z,6.62
2022-12-28T21:36:51.451Z,6.76
2022-12-28T21:39:19.606Z,6.55
2022-12-28T21:41:50.866Z,6.49
2022-12-28T21:44:22.911Z,6.46
2022-12-28T21:46:52.753Z,6.69
2022-12-28T21:49:21.670Z,6.76
2022-12-28T21:51:50.350Z,6.93
2022-12-28T21:54:22.673Z,6.93
2022-12-28T21:56:54.792Z,6.90
2022-12-28T21:59:26.485Z,6.78
2022-12-28T22:02:13.345Z,6.84
2022-12-28T22:05:03.258Z,6.99
2022-12-28T22:07:32.217Z,6.95
2022-12-28T22:10:18.242Z,6.87
2022-12-28T22:12:48.261Z,6.81
2022-12-28T22:15:41.706Z,6.83
2022-12-28T22:21:13.963Z,6.79
2022-12-28T22:23:43.173Z,6.79
2022-12-28T22:26:10.951Z,6.87
2022-12-28T22:28:39.144Z,6.91
2022-12-28T22:31:07.987Z,7.01
2022-12-28T22:33:36.008Z,7.02
2022-12-28T22:36:16.717Z,6.99
2022-12-28T22:38:44.586Z,7.04
2022-12-28T22:41:12.152Z,7.14
2022-12-28T22:43:39.814Z,7.11
2022-12-28T22:46:10.838Z,7.12
2022-12-28T22:48:39.091Z,7.18
2022-12-28T22:51:10.704Z,7.09
2022-12-28T22:53:38.919Z,7.01
2022-12-28T22:56:11.394Z,7.09
2022-12-28T22:58:39.195Z,6.98
2022-12-28T23:01:09.595Z,6.88
2022-12-28T23:03:45.245Z,6.86
2022-12-28T23:06:15.592Z,6.79
2022-12-28T23:08:43.529Z,6.64
2022-12-28T23:11:35.928Z,6.66
2022-12-28T23:14:50.252Z,6.64
2022-12-28T23:17:18.029Z,6.63
2022-12-28T23:20:05.173Z,6.61
2022-12-28T23:22:53.419Z,6.56
2022-12-28T23:25:43.628Z,6.60
2022-12-28T23:28:14.970Z,6.64
2022-12-28T23:30:47.857Z,6.62
2022-12-28T23:33:16.869Z,6.61
2022-12-28T23:35:44.933Z,6.73
2022-12-28T23:38:12.969Z,6.70
2022-12-28T23:40:42.061Z,6.80
2022-12-28T23:43:09.879Z,6.78
2022-12-28T23:45:38.027Z,6.74
2022-12-28T23:48:06.113Z,6.72
2022-12-28T23:50:36.302Z,6.69
2022-12-28T23:53:03.823Z,6.71
2022-12-28T23:55:31.408Z,6.65
2022-12-28T23:57:58.910Z,6.78
